Ludlow, Colorado
Current Conditions -  °F | °C
As of 12:54 AM on Monday 22 Dec 2014 (Local Time) from KTAD Reporting Station
Light Rain Light Rain  
Wind Chill: 33°   Ceiling: 2700
Heat Index: 40°   Visibility: 8mi
Dew Point: 30°   Wind: 12mph
Humidity: 68%   Direction: 10°N
Pressure: 29.69"   Gusts: 20mph
Location:  37.1661°N, 104.486°W
Report Text: KTAD 220754Z AUTO 01010G17KT 8SM -RA BKN027 OVC040 04/M01 A2969 RMK AO2 PK WND 34028/0707 SLP024 P0001 T00441011
Loading
Personal Weather Stations






























Interactive Weather Map New forecast layout! Learn more

10-Day Weather Forecast

Advertisements
Track Severe Weather on mobile